Time;durP1;ratioP1;P1;durP2;ratioP2;P2;SDS_P1;SDS_P2;PMS_P1;PMS_P2;Temp;Humidity;BMP_temperature;BMP_pressure;BME280_temperature;BME280_humidity;BME280_pressure;Samples;Min_cycle;Max_cycle;Signal;HPM_P1;HPM_P2
2023/04/21 00:00:01;;;;;;;19.45;9.00;;;5.70;90.80;;;;;;4985735;28;20059;-79
2023/04/21 00:02:28;;;;;;;24.40;9.23;;;5.70;90.80;;;;;;4994561;28;20054;-78
2023/04/21 00:04:55;;;;;;;26.17;8.95;;;5.70;91.20;;;;;;4971697;28;20070;-78
2023/04/21 00:07:22;;;;;;;26.85;8.88;;;5.60;90.90;;;;;;4979498;28;20054;-78
2023/04/21 00:09:49;;;;;;;27.85;9.35;;;5.60;91.00;;;;;;4971936;28;20058;-78
2023/04/21 00:12:16;;;;;;;24.40;8.77;;;5.60;91.20;;;;;;4976758;28;20500;-78
2023/04/21 00:14:42;;;;;;;27.23;9.20;;;5.60;91.30;;;;;;4972466;28;20047;-79
2023/04/21 00:17:09;;;;;;;28.13;9.90;;;5.50;91.30;;;;;;4975429;28;20654;-78
2023/04/21 00:19:36;;;;;;;24.40;8.95;;;5.50;91.40;;;;;;4978117;28;20126;-78
2023/04/21 00:22:03;;;;;;;18.42;8.13;;;5.50;91.60;;;;;;4996453;28;20089;-74
2023/04/21 00:24:30;;;;;;;25.25;8.57;;;5.50;91.40;;;;;;4964333;28;20061;-73
2023/04/21 00:26:57;;;;;;;29.30;8.57;;;5.60;91.30;;;;;;4966559;28;20054;-74
2023/04/21 00:29:24;;;;;;;20.73;8.93;;;5.60;91.20;;;;;;4970346;28;20483;-74
2023/04/21 00:31:50;;;;;;;19.38;8.90;;;5.60;91.20;;;;;;4965514;28;20050;-74
2023/04/21 00:34:17;;;;;;;26.88;8.98;;;5.60;91.20;;;;;;4965493;28;20130;-74
2023/04/21 00:36:44;;;;;;;25.92;10.10;;;5.60;91.20;;;;;;4995911;28;20476;-74
2023/04/21 00:39:11;;;;;;;21.63;9.13;;;5.70;91.30;;;;;;4967434;28;20058;-74
2023/04/21 00:41:39;;;;;;;27.40;10.30;;;5.70;91.30;;;;;;4964166;28;20047;-72
2023/04/21 00:44:07;;;;;;;21.27;8.68;;;5.70;91.20;;;;;;4976717;28;20083;-72
2023/04/21 00:46:35;;;;;;;19.73;9.23;;;5.70;91.20;;;;;;4964447;28;20152;-72
2023/04/21 00:49:06;;;;;;;23.58;9.55;;;5.70;91.00;;;;;;4980127;28;20423;-72
2023/04/21 00:51:34;;;;;;;30.83;10.15;;;5.80;91.00;;;;;;4965018;28;20057;-72
2023/04/21 00:54:06;;;;;;;24.88;9.10;;;5.80;91.10;;;;;;4963301;28;20063;-72
2023/04/21 00:56:34;;;;;;;25.55;9.63;;;5.70;91.00;;;;;;4963324;28;20416;-72
2023/04/21 00:59:01;;;;;;;27.02;9.57;;;5.70;91.10;;;;;;4965020;28;20054;-72
2023/04/21 01:01:30;;;;;;;30.67;9.32;;;5.70;91.20;;;;;;4966015;28;20053;-72
2023/04/21 01:03:58;;;;;;;25.20;9.73;;;5.70;91.30;;;;;;4987944;28;20163;-72
2023/04/21 01:06:31;;;;;;;29.58;8.88;;;5.60;91.30;;;;;;4963457;28;20055;-73
2023/04/21 01:08:58;;;;;;;25.85;8.60;;;5.60;91.20;;;;;;4963452;28;20080;-73
2023/04/21 01:11:25;;;;;;;25.95;9.30;;;5.60;91.20;;;;;;4966985;28;20146;-73
2023/04/21 01:13:55;;;;;;;19.70;9.00;;;5.60;91.20;;;;;;4963577;28;20046;-73
2023/04/21 01:16:23;;;;;;;21.80;9.48;;;5.60;91.40;;;;;;4963004;28;20055;-73
2023/04/21 01:18:52;;;;;;;29.42;10.05;;;5.60;91.30;;;;;;4961076;28;20531;-72
2023/04/21 01:21:20;;;;;;;24.92;10.00;;;5.70;91.10;;;;;;4963315;28;20047;-73
2023/04/21 01:23:47;;;;;;;21.92;9.20;;;5.70;91.00;;;;;;4962536;28;20055;-73
2023/04/21 01:26:17;;;;;;;23.13;10.30;;;5.60;90.90;;;;;;4993587;28;20089;-73
2023/04/21 01:28:46;;;;;;;30.98;9.50;;;5.60;91.10;;;;;;4963027;28;20051;-72
2023/04/21 01:31:14;;;;;;;32.58;10.07;;;5.60;91.00;;;;;;4961140;28;20493;-73
2023/04/21 01:33:41;;;;;;;27.75;9.43;;;5.60;91.10;;;;;;4976748;28;20081;-73
2023/04/21 01:36:08;;;;;;;29.00;9.13;;;5.60;91.20;;;;;;4962856;28;20054;-73
2023/04/21 01:38:39;;;;;;;23.27;9.05;;;5.50;91.20;;;;;;4994340;28;20141;-73
2023/04/21 01:41:07;;;;;;;26.50;9.40;;;5.50;91.00;;;;;;4957982;28;20050;-73
2023/04/21 01:43:35;;;;;;;28.20;9.73;;;5.50;91.00;;;;;;4962608;28;20412;-73
2023/04/21 01:46:06;;;;;;;31.77;10.63;;;5.50;91.00;;;;;;4962821;28;20066;-73
2023/04/21 01:48:33;;;;;;;24.60;9.43;;;5.40;91.30;;;;;;4963442;28;20050;-73
2023/04/21 01:51:00;;;;;;;20.85;9.35;;;5.40;91.10;;;;;;4993532;28;20542;-73
2023/04/21 01:53:26;;;;;;;21.45;9.02;;;5.40;91.30;;;;;;4979049;28;20062;-73
2023/04/21 01:55:53;;;;;;;22.77;8.68;;;5.40;91.20;;;;;;4973678;28;20051;-72
2023/04/21 01:58:20;;;;;;;20.50;9.88;;;5.30;91.30;;;;;;4957979;28;20821;-72
2023/04/21 02:00:47;;;;;;;29.98;9.30;;;5.30;91.20;;;;;;4962407;28;20042;-73
2023/04/21 02:03:14;;;;;;;22.83;9.48;;;5.30;91.20;;;;;;4962958;28;20690;-72
2023/04/21 02:05:42;;;;;;;29.58;10.38;;;5.30;91.30;;;;;;4962913;28;20077;-73
2023/04/21 02:08:09;;;;;;;19.60;9.40;;;5.20;91.10;;;;;;4993093;28;20067;-73
2023/04/21 02:10:36;;;;;;;22.58;8.93;;;5.30;91.10;;;;;;4962754;28;20054;-72
2023/04/21 02:13:03;;;;;;;21.00;9.57;;;5.30;91.10;;;;;;4963044;28;20051;-72
2023/04/21 02:15:30;;;;;;;25.52;9.02;;;5.20;91.00;;;;;;4973947;28;20043;-72
2023/04/21 02:17:57;;;;;;;26.27;9.40;;;5.20;90.90;;;;;;4960766;28;20717;-72
2023/04/21 02:20:24;;;;;;;31.10;9.40;;;5.20;90.80;;;;;;4991086;28;20053;-72
2023/04/21 02:22:51;;;;;;;21.90;9.15;;;5.20;90.90;;;;;;4975835;28;20051;-72
2023/04/21 02:25:18;;;;;;;22.48;9.27;;;5.20;90.90;;;;;;4962713;28;20054;-72
2023/04/21 02:27:45;;;;;;;32.35;8.88;;;5.20;90.60;;;;;;4962790;28;20227;-72
2023/04/21 02:30:12;;;;;;;25.80;8.68;;;5.20;90.80;;;;;;4963485;28;20836;-72
2023/04/21 02:32:39;;;;;;;23.92;9.60;;;5.20;91.00;;;;;;4961455;28;20525;-73
2023/04/21 02:35:06;;;;;;;23.52;9.00;;;5.10;90.80;;;;;;4962064;28;20133;-72
2023/04/21 02:37:34;;;;;;;27.63;8.70;;;5.10;91.00;;;;;;4961839;28;20047;-73
2023/04/21 02:40:00;;;;;;;27.05;9.32;;;5.10;91.10;;;;;;4993511;28;20802;-73
2023/04/21 02:42:27;;;;;;;20.90;7.95;;;5.10;90.90;;;;;;4961429;28;20047;-72
2023/04/21 02:44:54;;;;;;;31.42;9.23;;;5.10;90.80;;;;;;4962651;28;20043;-72
2023/04/21 02:47:21;;;;;;;21.70;8.82;;;5.10;91.00;;;;;;4963551;28;20086;-72
2023/04/21 02:49:48;;;;;;;22.60;9.13;;;5.00;90.90;;;;;;4963122;28;20113;-72
2023/04/21 02:52:14;;;;;;;17.33;8.20;;;5.00;91.00;;;;;;4977251;28;20062;-73
2023/04/21 02:57:58;;;;;;;25.52;9.15;;;5.00;90.70;;;;;;4984146;28;20066;-79
2023/04/21 03:00:25;;;;;;;25.52;8.75;;;5.00;90.90;;;;;;4966371;28;20053;-79
2023/04/21 03:02:52;;;;;;;19.55;7.55;;;5.00;90.90;;;;;;4986999;28;20049;-79
2023/04/21 03:05:20;;;;;;;19.90;7.65;;;5.00;90.80;;;;;;4992170;28;20620;-79
2023/04/21 03:07:46;;;;;;;22.92;8.45;;;5.00;90.50;;;;;;4993351;28;20046;-79
2023/04/21 03:10:13;;;;;;;22.35;7.97;;;4.90;90.70;;;;;;4996665;28;20050;-77
2023/04/21 03:12:40;;;;;;;18.55;7.72;;;4.90;90.80;;;;;;4975141;28;20691;-78
2023/04/21 03:15:07;;;;;;;22.23;8.27;;;4.90;90.50;;;;;;4999658;28;20054;-79
2023/04/21 03:17:34;;;;;;;23.23;8.02;;;4.90;90.40;;;;;;4991909;28;20138;-79
2023/04/21 03:20:03;;;;;;;22.42;8.13;;;4.90;90.70;;;;;;4991408;28;20491;-79
2023/04/21 03:22:30;;;;;;;24.83;8.40;;;4.90;90.60;;;;;;4998758;28;20134;-78
2023/04/21 03:24:57;;;;;;;25.55;7.53;;;4.90;90.70;;;;;;4989668;28;20092;-79
2023/04/21 03:27:24;;;;;;;22.80;7.78;;;4.90;91.00;;;;;;4991943;28;20068;-78
2023/04/21 03:29:51;;;;;;;19.35;6.82;;;4.90;90.70;;;;;;5000637;28;20057;-79
2023/04/21 03:32:18;;;;;;;27.45;8.40;;;4.80;90.90;;;;;;4982535;28;20065;-78
2023/04/21 03:34:45;;;;;;;14.98;7.22;;;4.80;90.80;;;;;;5000314;28;20047;-78
2023/04/21 03:42:31;;;;;;;16.23;7.22;;;4.80;90.50;;;;;;4943384;28;20082;-73
2023/04/21 03:45:05;;;;;;;17.83;7.18;;;4.80;90.60;;;;;;4947129;28;20500;-73
2023/04/21 03:47:32;;;;;;;21.88;7.80;;;4.80;90.60;;;;;;4930673;29;20063;-72
2023/04/21 03:49:59;;;;;;;24.65;8.05;;;4.80;90.70;;;;;;4946362;28;20057;-72
2023/04/21 03:52:26;;;;;;;25.83;8.35;;;4.80;90.60;;;;;;4947248;28;20050;-72
2023/04/21 03:54:53;;;;;;;19.17;7.28;;;4.80;90.70;;;;;;4945147;28;20709;-72
2023/04/21 03:57:20;;;;;;;19.10;7.18;;;4.80;90.80;;;;;;4945880;28;20057;-72
2023/04/21 03:59:47;;;;;;;20.63;7.65;;;4.80;90.90;;;;;;4947002;28;20054;-72
2023/04/21 04:02:14;;;;;;;19.42;7.10;;;4.80;91.00;;;;;;4945348;28;20059;-73
2023/04/21 04:04:41;;;;;;;21.98;7.10;;;4.80;91.00;;;;;;4945903;29;20127;-73
2023/04/21 04:07:08;;;;;;;16.38;6.65;;;4.80;91.20;;;;;;4947327;28;20055;-72
2023/04/21 04:09:35;;;;;;;16.75;6.65;;;4.80;91.10;;;;;;4945229;28;20057;-72
2023/04/21 04:12:02;;;;;;;23.60;7.70;;;4.80;91.00;;;;;;4931891;29;20523;-73
2023/04/21 04:17:01;;;;;;;16.33;7.57;;;4.80;91.30;;;;;;5061504;23;20054;-72
2023/04/21 04:19:32;;;;;;;15.95;6.70;;;4.80;91.30;;;;;;4984787;28;20728;-72
2023/04/21 04:22:00;;;;;;;18.05;6.97;;;4.80;91.30;;;;;;4981491;28;20176;-72
2023/04/21 04:24:27;;;;;;;21.45;7.18;;;4.80;91.40;;;;;;4977261;28;20169;-72
2023/04/21 04:26:56;;;;;;;17.05;7.30;;;4.80;91.60;;;;;;4989650;28;20074;-73
2023/04/21 04:29:23;;;;;;;20.23;7.32;;;4.80;91.50;;;;;;4992301;28;20506;-73
2023/04/21 04:31:50;;;;;;;23.58;6.13;;;4.80;91.60;;;;;;4989905;28;20054;-73
2023/04/21 04:34:17;;;;;;;17.10;7.95;;;4.90;91.60;;;;;;4982928;28;20493;-73
2023/04/21 04:36:47;;;;;;;18.65;6.07;;;4.90;91.70;;;;;;4985131;28;20088;-73
2023/04/21 04:39:16;;;;;;;13.48;6.43;;;4.90;91.70;;;;;;4991361;28;20058;-73
2023/04/21 04:41:43;;;;;;;20.20;6.53;;;4.90;91.60;;;;;;4980595;28;20140;-73
2023/04/21 04:44:10;;;;;;;16.02;6.10;;;4.90;91.50;;;;;;4983572;28;20058;-73
2023/04/21 04:46:38;;;;;;;13.55;6.35;;;5.00;91.60;;;;;;4980288;28;20153;-73
2023/04/21 04:49:05;;;;;;;22.35;6.47;;;5.00;91.50;;;;;;4983797;28;20065;-72
2023/04/21 04:51:32;;;;;;;18.15;6.43;;;5.00;91.40;;;;;;4966731;28;20495;-73
2023/04/21 04:53:59;;;;;;;24.13;6.65;;;5.10;91.40;;;;;;4983196;28;20061;-72
2023/04/21 04:56:26;;;;;;;24.52;6.65;;;5.10;91.40;;;;;;4982534;28;20749;-73
2023/04/21 04:58:52;;;;;;;17.10;6.70;;;5.20;91.40;;;;;;4963926;28;20046;-73
2023/04/21 05:01:19;;;;;;;16.73;6.75;;;5.20;91.40;;;;;;4981168;28;20061;-73
2023/04/21 05:03:46;;;;;;;14.75;5.65;;;5.30;91.20;;;;;;4963173;28;20054;-73
2023/04/21 05:06:13;;;;;;;15.00;6.93;;;5.30;91.00;;;;;;4970217;28;20053;-72
2023/04/21 05:08:40;;;;;;;13.75;6.00;;;5.40;90.70;;;;;;4994345;28;20046;-73
2023/04/21 05:14:16;;;;;;;19.30;6.25;;;5.50;90.40;;;;;;5027104;23;20117;-73
2023/04/21 05:16:43;;;;;;;26.70;5.95;;;5.50;90.70;;;;;;4973788;28;20681;-73
2023/04/21 05:19:10;;;;;;;16.00;5.78;;;5.60;90.40;;;;;;4966116;28;20050;-74
2023/04/21 05:21:37;;;;;;;28.17;7.10;;;5.70;90.40;;;;;;4982062;28;20056;-74
2023/04/21 05:24:04;;;;;;;21.77;6.63;;;5.70;90.30;;;;;;4960750;28;20046;-74
2023/04/21 05:26:31;;;;;;;28.33;6.38;;;5.80;90.20;;;;;;4985395;28;20053;-75
2023/04/21 05:28:57;;;;;;;17.25;6.18;;;5.90;90.00;;;;;;4975395;28;20069;-71
2023/04/21 05:31:25;;;;;;;14.15;5.93;;;5.90;89.70;;;;;;4976396;28;20054;-73
2023/04/21 05:33:52;;;;;;;12.77;5.88;;;6.00;89.50;;;;;;4975158;28;20054;-73
2023/04/21 05:36:19;;;;;;;14.38;5.72;;;6.10;89.40;;;;;;4978955;28;20061;-73
2023/04/21 05:38:46;;;;;;;18.70;6.05;;;6.20;89.30;;;;;;4982326;28;20057;-73
2023/04/21 05:41:13;;;;;;;14.18;5.60;;;6.30;88.90;;;;;;4976974;28;20057;-72
2023/04/21 05:43:40;;;;;;;18.02;6.00;;;6.40;88.70;;;;;;4970716;28;20062;-72
2023/04/21 05:46:10;;;;;;;16.10;5.95;;;6.50;88.70;;;;;;4970627;28;20133;-72
2023/04/21 05:48:37;;;;;;;20.90;6.57;;;6.60;87.90;;;;;;4969922;28;20051;-72
2023/04/21 05:51:11;;;;;;;21.63;6.20;;;6.70;87.90;;;;;;4987393;28;20065;-72
2023/04/21 05:53:39;;;;;;;15.57;6.18;;;6.80;87.40;;;;;;4985937;28;20058;-72
2023/04/21 05:56:07;;;;;;;22.35;6.03;;;6.80;87.10;;;;;;4978966;28;20742;-73
2023/04/21 05:58:35;;;;;;;25.77;5.68;;;6.90;86.00;;;;;;4970014;28;20062;-72
2023/04/21 06:01:02;;;;;;;14.63;5.60;;;7.00;85.00;;;;;;4980526;28;20089;-73
2023/04/21 06:03:32;;;;;;;17.35;5.70;;;7.20;84.70;;;;;;4975775;28;20089;-71
2023/04/21 06:06:01;;;;;;;17.85;6.18;;;7.30;83.60;;;;;;4973374;28;20503;-72
2023/04/21 06:08:28;;;;;;;14.20;4.88;;;7.40;83.60;;;;;;4978139;28;20069;-72
2023/04/21 06:10:55;;;;;;;21.02;6.20;;;7.50;83.20;;;;;;4974034;28;20061;-72
2023/04/21 06:13:22;;;;;;;17.05;6.03;;;7.60;82.80;;;;;;4986502;28;20162;-72
2023/04/21 06:15:49;;;;;;;22.08;6.53;;;7.70;82.60;;;;;;4993155;28;20057;-72
2023/04/21 06:18:16;;;;;;;18.38;6.00;;;7.80;82.10;;;;;;4982384;28;20644;-72
2023/04/21 06:20:53;;;;;;;21.50;5.78;;;8.00;82.60;;;;;;4975952;28;20051;-72
2023/04/21 06:23:20;;;;;;;24.65;6.03;;;8.30;81.50;;;;;;4988198;28;20049;-73
2023/04/21 06:26:03;;;;;;;17.52;5.45;;;8.70;81.00;;;;;;4976012;28;20049;-71
2023/04/21 06:28:32;;;;;;;14.63;5.20;;;9.00;78.90;;;;;;4978650;28;20730;-72
2023/04/21 06:31:00;;;;;;;11.30;5.25;;;9.40;77.90;;;;;;4964932;28;20446;-72
2023/04/21 06:33:28;;;;;;;13.38;5.30;;;9.70;77.30;;;;;;4977923;28;20155;-73
2023/04/21 06:35:55;;;;;;;10.90;5.38;;;10.00;76.20;;;;;;4978471;28;20050;-72
2023/04/21 06:38:22;;;;;;;17.52;5.57;;;10.40;75.00;;;;;;4990156;28;20140;-72
2023/04/21 06:40:50;;;;;;;16.52;4.70;;;10.70;74.10;;;;;;4983333;28;20049;-73
2023/04/21 06:43:17;;;;;;;23.00;5.25;;;11.20;73.30;;;;;;4964906;28;20055;-72
2023/04/21 06:45:44;;;;;;;13.82;4.78;;;11.50;71.80;;;;;;4989249;28;20047;-72
2023/04/21 06:48:11;;;;;;;14.80;5.30;;;11.70;70.20;;;;;;4979735;28;20058;-72
2023/04/21 06:50:37;;;;;;;15.20;5.32;;;12.10;70.00;;;;;;4989796;28;20073;-72
2023/04/21 06:53:04;;;;;;;26.35;5.53;;;12.40;68.70;;;;;;4983165;28;20055;-72
2023/04/21 06:55:31;;;;;;;10.80;4.68;;;12.70;66.50;;;;;;4988043;28;21143;-72
2023/04/21 06:57:58;;;;;;;10.32;4.95;;;12.90;66.10;;;;;;4987454;28;20061;-72
2023/04/21 07:00:25;;;;;;;12.35;4.70;;;13.10;65.80;;;;;;4986504;28;20145;-72
2023/04/21 07:02:52;;;;;;;13.43;5.43;;;13.30;64.70;;;;;;4984441;28;20181;-73
2023/04/21 07:05:19;;;;;;;19.85;6.38;;;13.70;64.20;;;;;;4985143;28;20049;-72
2023/04/21 07:07:46;;;;;;;11.73;5.05;;;14.00;62.70;;;;;;4984370;28;20046;-73
2023/04/21 07:10:17;;;;;;;12.65;5.43;;;14.10;62.60;;;;;;4982128;28;20049;-72
2023/04/21 07:12:45;;;;;;;13.80;5.25;;;14.30;62.40;;;;;;4985295;28;20506;-72
2023/04/21 07:15:12;;;;;;;15.40;5.10;;;14.50;61.70;;;;;;4963024;28;20136;-73
2023/04/21 07:17:39;;;;;;;11.90;5.25;;;14.80;60.10;;;;;;4971933;28;20078;-73
2023/04/21 07:20:06;;;;;;;12.90;5.65;;;15.00;60.30;;;;;;4979516;28;20054;-73
2023/04/21 07:22:34;;;;;;;11.95;5.65;;;15.10;60.20;;;;;;4967597;28;20449;-73
2023/04/21 07:25:05;;;;;;;13.50;5.85;;;15.50;58.40;;;;;;4992129;28;20050;-73
2023/04/21 07:27:32;;;;;;;9.30;5.00;;;15.60;57.70;;;;;;4966767;28;20183;-73
2023/04/21 07:29:59;;;;;;;12.70;5.22;;;15.90;57.70;;;;;;4992999;28;20077;-73
2023/04/21 07:32:26;;;;;;;13.50;5.85;;;16.30;58.00;;;;;;4976945;28;20054;-73
2023/04/21 07:34:53;;;;;;;13.45;5.53;;;16.80;56.80;;;;;;4983697;28;20144;-73
2023/04/21 07:37:20;;;;;;;10.13;5.65;;;17.10;57.30;;;;;;4960088;28;20062;-73
2023/04/21 07:39:49;;;;;;;7.70;5.07;;;17.30;54.70;;;;;;4977927;28;20051;-72
2023/04/21 07:42:16;;;;;;;16.02;5.85;;;17.50;54.30;;;;;;4979882;28;20096;-72
2023/04/21 07:44:43;;;;;;;10.90;6.00;;;17.80;55.00;;;;;;4965334;28;20043;-73
2023/04/21 07:47:09;;;;;;;14.52;5.38;;;18.20;53.70;;;;;;4988868;28;20746;-73
2023/04/21 07:49:36;;;;;;;14.23;5.10;;;18.50;53.60;;;;;;4991504;28;20054;-73
2023/04/21 07:52:03;;;;;;;14.73;5.97;;;18.70;53.60;;;;;;4963695;28;20109;-73
2023/04/21 07:54:30;;;;;;;12.02;6.03;;;18.70;52.20;;;;;;4988928;28;20060;-73
2023/04/21 07:56:58;;;;;;;10.27;6.07;;;18.80;53.20;;;;;;4981558;28;20482;-73
2023/04/21 07:59:25;;;;;;;16.40;7.47;;;18.90;54.50;;;;;;4966596;28;20388;-73
2023/04/21 08:01:53;;;;;;;14.38;5.88;;;19.00;52.60;;;;;;4972217;28;20053;-73
2023/04/21 08:04:22;;;;;;;12.48;6.00;;;19.40;53.10;;;;;;4987794;28;20084;-73
2023/04/21 08:06:50;;;;;;;8.70;5.05;;;19.70;52.60;;;;;;4979072;28;20475;-72
2023/04/21 08:09:17;;;;;;;11.05;5.20;;;19.70;51.60;;;;;;4972420;28;20086;-72
2023/04/21 08:11:46;;;;;;;10.50;5.88;;;20.10;52.30;;;;;;4980159;28;20142;-72
2023/04/21 08:14:13;;;;;;;15.52;6.25;;;20.20;50.90;;;;;;4973792;28;20070;-72
2023/04/21 08:16:41;;;;;;;13.50;5.88;;;20.40;50.30;;;;;;4983864;28;20073;-71
2023/04/21 08:19:08;;;;;;;11.75;5.25;;;20.30;50.90;;;;;;4976967;28;20157;-71
2023/04/21 08:21:36;;;;;;;10.70;6.10;;;20.40;50.40;;;;;;4982701;28;20127;-72
2023/04/21 08:24:03;;;;;;;15.77;5.97;;;20.50;49.50;;;;;;4982504;28;20055;-73
2023/04/21 08:26:32;;;;;;;10.43;5.47;;;20.80;51.40;;;;;;4983751;28;20050;-73
2023/04/21 08:29:00;;;;;;;10.98;6.07;;;21.30;50.40;;;;;;4983659;28;20046;-71
2023/04/21 08:31:30;;;;;;;15.90;6.05;;;21.40;49.20;;;;;;4982237;28;20046;-72
2023/04/21 08:34:00;;;;;;;11.75;5.43;;;21.60;49.60;;;;;;4981362;28;20189;-72
2023/04/21 08:36:29;;;;;;;9.18;5.15;;;21.70;49.70;;;;;;4980963;28;20718;-73
2023/04/21 08:38:57;;;;;;;10.77;5.57;;;21.90;49.00;;;;;;4960291;28;20069;-72
2023/04/21 08:41:24;;;;;;;10.80;5.30;;;22.10;49.20;;;;;;4978546;28;20166;-73
2023/04/21 08:43:51;;;;;;;10.38;5.65;;;22.50;49.00;;;;;;4969802;28;20138;-73
2023/04/21 08:46:18;;;;;;;63.40;9.52;;;22.60;47.60;;;;;;4987447;28;20046;-72
2023/04/21 08:48:46;;;;;;;10.23;5.32;;;22.40;47.90;;;;;;4977619;28;20128;-73
2023/04/21 08:51:20;;;;;;;11.77;5.85;;;22.50;48.20;;;;;;4978020;28;20514;-73
2023/04/21 08:53:47;;;;;;;12.95;5.35;;;22.80;47.70;;;;;;4977016;28;20053;-73
2023/04/21 08:56:14;;;;;;;15.40;5.53;;;22.90;48.00;;;;;;4983192;28;20168;-73
2023/04/21 08:58:40;;;;;;;9.07;5.40;;;23.10;47.00;;;;;;4963878;28;20065;-73
2023/04/21 09:01:07;;;;;;;10.55;5.95;;;23.10;46.40;;;;;;4970391;28;20521;-73
2023/04/21 09:03:34;;;;;;;13.00;5.45;;;23.40;46.60;;;;;;4975683;28;20166;-72
2023/04/21 09:06:06;;;;;;;12.15;5.78;;;23.50;46.30;;;;;;4967440;28;20073;-73
2023/04/21 09:08:38;;;;;;;11.18;5.28;;;23.50;45.80;;;;;;4978703;28;20797;-73
2023/04/21 09:11:05;;;;;;;13.38;5.88;;;23.50;46.20;;;;;;4980552;28;20058;-72
2023/04/21 09:13:35;;;;;;;9.85;5.30;;;23.70;45.20;;;;;;4984326;28;20050;-73
2023/04/21 09:16:16;;;;;;;19.85;5.88;;;24.00;45.30;;;;;;4981141;28;20070;-72
2023/04/21 09:18:43;;;;;;;17.80;5.80;;;24.20;45.00;;;;;;4977283;28;20084;-73
2023/04/21 09:21:15;;;;;;;7.97;5.78;;;24.40;44.10;;;;;;4986914;28;20073;-73
2023/04/21 09:23:50;;;;;;;15.20;6.00;;;24.30;44.10;;;;;;4984759;28;20074;-71
2023/04/21 09:26:18;;;;;;;12.70;5.90;;;24.50;43.60;;;;;;4976660;28;20051;-71
2023/04/21 09:28:46;;;;;;;14.20;6.00;;;24.70;44.10;;;;;;4985370;28;20121;-71
2023/04/21 09:31:23;;;;;;;10.77;5.68;;;24.40;43.80;;;;;;4984275;28;20697;-71
2023/04/21 09:33:56;;;;;;;20.20;5.88;;;24.60;44.20;;;;;;4982535;28;20047;-72
2023/04/21 09:36:29;;;;;;;9.95;5.35;;;25.10;43.90;;;;;;4978350;28;20058;-72
2023/04/21 09:38:58;;;;;;;11.70;5.22;;;25.30;42.80;;;;;;4986705;28;20129;-71
2023/04/21 09:41:45;;;;;;;7.80;5.53;;;25.10;43.20;;;;;;4985775;28;20069;-71
2023/04/21 09:44:13;;;;;;;15.82;5.72;;;25.10;42.50;;;;;;4980415;28;20046;-71
2023/04/21 09:46:43;;;;;;;13.68;5.57;;;25.10;42.80;;;;;;4984358;28;20109;-71
2023/04/21 09:49:15;;;;;;;17.60;5.75;;;25.30;42.70;;;;;;4962661;28;20057;-71
2023/04/21 09:51:42;;;;;;;13.38;5.53;;;25.60;43.30;;;;;;4979881;28;20071;-70
2023/04/21 09:54:35;;;;;;;11.23;5.55;;;26.20;42.70;;;;;;4967616;28;20076;-71
2023/04/21 09:57:04;;;;;;;9.65;5.60;;;26.20;41.90;;;;;;4981868;28;20856;-71
2023/04/21 09:59:39;;;;;;;8.88;5.30;;;26.00;42.40;;;;;;4984657;28;20049;-71
2023/04/21 10:02:06;;;;;;;;;;;26.30;41.20;;;;;;4986159;28;20157;-72
2023/04/21 10:04:36;;;;;;;11.73;5.90;;;26.20;40.30;;;;;;4978744;28;19926;-72
2023/04/21 10:07:08;;;;;;;17.83;5.88;;;26.20;40.80;;;;;;4981100;28;20078;-72
2023/04/21 10:09:51;;;;;;;10.00;6.22;;;26.40;40.90;;;;;;4955700;28;20054;-71
2023/04/21 10:12:18;;;;;;;25.25;6.18;;;26.60;40.80;;;;;;4980271;28;20061;-71
2023/04/21 10:14:49;;;;;;;16.17;6.18;;;27.20;40.00;;;;;;4971020;28;20062;-72
2023/04/21 10:17:16;;;;;;;7.78;5.22;;;27.30;39.20;;;;;;4971460;28;20057;-72
2023/04/21 10:19:50;;;;;;;8.13;5.20;;;27.50;40.50;;;;;;4975675;28;20057;-72
2023/04/21 10:22:31;;;;;;;15.07;5.32;;;27.30;39.70;;;;;;4979492;28;20050;-72
2023/04/21 10:25:00;;;;;;;10.45;6.13;;;27.60;40.50;;;;;;4976313;28;20056;-72
2023/04/21 10:27:41;;;;;;;13.63;6.10;;;28.20;40.60;;;;;;4973293;28;20060;-72
2023/04/21 10:30:22;;;;;;;9.32;5.50;;;28.30;39.20;;;;;;4973630;28;20050;-72
2023/04/21 10:33:02;;;;;;;9.57;5.72;;;28.20;39.30;;;;;;4978208;28;20503;-73
2023/04/21 10:35:57;;;;;;;8.95;5.43;;;28.10;39.50;;;;;;4983146;28;20050;-73
2023/04/21 10:38:34;;;;;;;12.43;5.55;;;28.40;40.40;;;;;;4982550;28;20528;-73
2023/04/21 10:41:30;;;;;;;14.57;6.35;;;28.40;37.50;;;;;;4968847;28;20132;-72
2023/04/21 10:44:17;;;;;;;;;;;28.00;37.60;;;;;;4980905;28;20046;-72
2023/04/21 10:46:46;;;;;;;13.32;5.47;;;27.50;39.50;;;;;;4982796;28;19941;-73
2023/04/21 10:49:20;;;;;;;11.48;5.72;;;27.70;41.60;;;;;;4984255;28;20057;-72
2023/04/21 10:51:57;;;;;;;10.15;5.85;;;28.10;39.10;;;;;;4974452;28;20054;-73
2023/04/21 10:54:25;;;;;;;10.98;5.90;;;28.30;39.10;;;;;;4969790;28;20101;-73
2023/04/21 10:56:54;;;;;;;11.95;5.68;;;28.30;39.80;;;;;;4981266;28;20749;-72
2023/04/21 10:59:22;;;;;;;9.48;6.00;;;28.70;39.60;;;;;;4971780;28;20046;-73
2023/04/21 11:01:49;;;;;;;11.63;6.20;;;29.30;37.60;;;;;;4974392;28;20054;-73
2023/04/21 11:04:18;;;;;;;13.48;6.43;;;28.70;38.90;;;;;;4973096;28;20475;-73
2023/04/21 11:07:07;;;;;;;11.05;5.75;;;28.70;38.50;;;;;;4976697;28;20050;-73
2023/04/21 11:09:35;;;;;;;10.43;5.97;;;28.60;37.90;;;;;;4980649;28;20060;-73
2023/04/21 11:12:08;;;;;;;12.02;6.75;;;28.20;38.30;;;;;;4975448;28;20085;-73
2023/04/21 11:14:37;;;;;;;12.95;6.32;;;28.40;38.70;;;;;;4975797;28;20038;-73
2023/04/21 11:17:10;;;;;;;11.70;6.13;;;28.80;38.30;;;;;;4966298;28;20047;-73
2023/04/21 11:19:37;;;;;;;9.00;6.18;;;29.00;39.10;;;;;;4975215;28;20061;-72
2023/04/21 11:22:04;;;;;;;13.73;7.20;;;29.40;38.10;;;;;;4985260;28;20053;-73
2023/04/21 11:24:32;;;;;;;14.85;7.28;;;29.30;37.50;;;;;;4978537;28;20054;-73
2023/04/21 11:27:00;;;;;;;13.75;6.20;;;28.40;39.30;;;;;;4984711;28;20050;-72
2023/04/21 11:29:28;;;;;;;12.30;6.75;;;29.20;38.30;;;;;;4968844;28;20050;-73
2023/04/21 11:31:55;;;;;;;17.08;6.80;;;29.60;37.50;;;;;;4985292;28;20050;-73
2023/04/21 11:34:23;;;;;;;13.93;7.95;;;29.50;35.90;;;;;;4980574;28;20065;-72
2023/04/21 11:36:52;;;;;;;16.02;7.35;;;29.20;36.90;;;;;;4974449;28;20052;-73
2023/04/21 11:39:19;;;;;;;16.30;7.03;;;29.00;38.60;;;;;;4976728;28;20147;-72
2023/04/21 11:41:49;;;;;;;10.55;6.45;;;29.50;38.10;;;;;;4960109;28;20132;-74
2023/04/21 11:44:35;;;;;;;10.93;6.45;;;29.40;36.90;;;;;;4977601;28;20065;-73
2023/04/21 11:47:11;;;;;;;9.13;6.65;;;29.10;37.00;;;;;;4976759;28;20064;-73
2023/04/21 11:49:45;;;;;;;18.10;7.68;;;29.00;37.40;;;;;;4979227;28;20050;-74
2023/04/21 11:52:31;;;;;;;9.05;6.22;;;28.80;37.70;;;;;;4987326;28;20058;-74
2023/04/21 11:55:04;;;;;;;21.98;6.82;;;29.30;38.00;;;;;;4969096;28;20050;-75
2023/04/21 11:57:32;;;;;;;12.98;6.70;;;29.10;37.90;;;;;;4996308;28;20053;-74
2023/04/21 12:00:00;;;;;;;10.02;6.82;;;29.30;37.70;;;;;;4987099;28;20778;-74
2023/04/21 12:02:29;;;;;;;22.20;6.78;;;29.30;37.80;;;;;;4976961;28;20065;-74
2023/04/21 19:28:35;;;;;;;5.15;3.30;;;9.40;65.00;;;;;;5051914;28;20525;-73
2023/04/21 19:31:02;;;;;;;6.68;3.72;;;9.40;63.20;;;;;;5040534;28;20053;-73
2023/04/21 19:33:29;;;;;;;6.82;3.22;;;9.30;63.60;;;;;;5034215;28;20657;-73
2023/04/21 19:35:56;;;;;;;6.85;3.00;;;9.30;62.90;;;;;;5038599;28;20051;-74
2023/04/21 19:38:24;;;;;;;15.05;4.40;;;9.20;64.10;;;;;;5039851;28;20494;-73
2023/04/21 19:40:51;;;;;;;10.32;2.97;;;9.10;65.20;;;;;;5036329;28;20048;-73
2023/04/21 19:43:19;;;;;;;10.82;2.75;;;9.00;64.70;;;;;;5034370;28;20122;-73
2023/04/21 19:45:47;;;;;;;18.23;5.20;;;8.90;65.80;;;;;;5035847;28;20653;-73
2023/04/21 19:48:14;;;;;;;21.25;5.63;;;8.90;66.00;;;;;;5035433;28;20403;-73
2023/04/21 19:50:41;;;;;;;11.45;3.65;;;8.80;64.90;;;;;;5035797;28;20076;-73
2023/04/21 19:53:13;;;;;;;9.13;3.17;;;8.70;67.20;;;;;;5031623;28;20056;-73
2023/04/21 19:55:44;;;;;;;9.93;4.05;;;8.60;66.30;;;;;;5036204;28;20055;-73
2023/04/21 19:58:11;;;;;;;7.30;3.28;;;8.60;67.10;;;;;;5036926;28;20053;-73
2023/04/21 20:00:38;;;;;;;6.63;2.92;;;8.50;67.70;;;;;;5045482;28;20055;-73
2023/04/21 20:03:05;;;;;;;5.15;3.20;;;8.50;66.70;;;;;;5037374;28;20053;-73
2023/04/21 20:05:33;;;;;;;9.60;3.33;;;8.40;68.30;;;;;;5037544;28;20055;-73
2023/04/21 20:08:00;;;;;;;9.07;3.33;;;8.30;68.00;;;;;;5041289;28;20084;-74
2023/04/21 20:10:26;;;;;;;9.35;3.53;;;8.20;67.80;;;;;;5041027;28;20048;-73
2023/04/21 20:12:53;;;;;;;13.13;3.88;;;8.20;68.70;;;;;;5034730;28;20046;-74
2023/04/21 20:15:20;;;;;;;7.30;3.45;;;8.10;68.70;;;;;;5040610;28;20749;-72
2023/04/21 20:17:47;;;;;;;13.13;3.75;;;8.00;68.90;;;;;;5040327;28;20056;-73
2023/04/21 20:20:15;;;;;;;7.75;3.65;;;8.00;68.90;;;;;;5037272;28;20045;-73
2023/04/21 20:22:42;;;;;;;6.68;3.65;;;8.00;69.30;;;;;;5034218;28;20061;-73
2023/04/21 20:25:09;;;;;;;8.18;3.40;;;7.90;68.60;;;;;;5042405;28;20156;-73
2023/04/21 20:27:36;;;;;;;9.52;3.33;;;7.80;69.00;;;;;;5036955;28;20091;-73